Time;durP1;ratioP1;P1;durP2;ratioP2;P2;SDS_P1;SDS_P2;PMS_P1;PMS_P2;Temp;Humidity;BMP_temperature;BMP_pressure;BME280_temperature;BME280_humidity;BME280_pressure;Samples;Min_cycle;Max_cycle;Signal;HPM_P1;HPM_P2
2023/05/25 00:01:54;;;;;;;12.38;8.88;;;;;;;5.26;100.00;102334.47;10498067;28;20117;-83
2023/05/25 00:06:55;;;;;;;15.15;8.23;;;;;;;5.21;100.00;102340.94;10482556;28;20105;-83
2023/05/25 00:11:57;;;;;;;15.32;8.10;;;;;;;5.24;100.00;102328.22;10484431;28;20066;-82
2023/05/25 00:16:57;;;;;;;17.00;8.20;;;;;;;5.27;100.00;102332.00;10482253;28;20072;-82
2023/05/25 00:22:01;;;;;;;17.27;8.45;;;;;;;5.23;100.00;102331.59;10513553;28;20123;-82
2023/05/25 00:27:02;;;;;;;19.83;9.95;;;;;;;5.16;100.00;102330.09;10482878;28;20041;-82
2023/05/25 00:32:02;;;;;;;16.73;9.48;;;;;;;5.03;100.00;102333.25;10490527;28;20051;-82
2023/05/25 00:37:03;;;;;;;19.48;10.73;;;;;;;5.11;100.00;102333.94;10489800;28;20048;-82
2023/05/25 00:42:05;;;;;;;15.82;8.25;;;;;;;5.06;100.00;102338.72;10473273;28;20127;-82
2023/05/25 00:47:05;;;;;;;15.85;10.20;;;;;;;4.96;100.00;102344.72;10489181;28;20366;-83
2023/05/25 00:52:06;;;;;;;18.40;9.88;;;;;;;4.91;100.00;102339.88;10490940;28;20119;-82
2023/05/25 00:57:07;;;;;;;15.27;8.48;;;;;;;4.84;100.00;102343.56;10506644;28;20067;-83
2023/05/25 01:02:12;;;;;;;17.10;9.93;;;;;;;4.78;100.00;102351.69;10475760;28;20033;-82
2023/05/25 01:07:24;;;;;;;22.45;13.38;;;;;;;4.88;100.00;102357.75;10487884;28;20396;-82
2023/05/25 01:12:26;;;;;;;23.45;12.45;;;;;;;4.90;100.00;102361.41;10489009;28;20120;-82
2023/05/25 01:17:27;;;;;;;20.20;12.25;;;;;;;4.81;100.00;102353.66;10472712;28;20056;-82
2023/05/25 01:22:37;;;;;;;26.60;14.90;;;;;;;4.96;100.00;102362.88;10455124;28;20064;-83
2023/05/25 01:27:39;;;;;;;16.55;10.70;;;;;;;4.95;100.00;102357.56;10425813;28;20283;-82
2023/05/25 01:32:40;;;;;;;;;;;;;;;4.88;100.00;102355.16;10489190;28;20078;-82
2023/05/25 01:37:45;;;;;;;20.40;12.50;;;;;;;4.94;100.00;102358.34;10487427;28;20334;-82
2023/05/25 01:42:45;;;;;;;25.45;13.50;;;;;;;4.84;100.00;102356.53;10486712;28;20032;-81
2023/05/25 01:48:05;;;;;;;21.45;11.77;;;;;;;4.70;100.00;102356.13;10484660;28;20124;-81
2023/05/25 01:53:12;;;;;;;22.27;10.90;;;;;;;4.66;100.00;102373.88;10448335;28;20171;-81
2023/05/25 01:58:13;;;;;;;28.25;13.68;;;;;;;4.60;100.00;102365.50;10445868;28;20071;-82
2023/05/25 02:03:14;;;;;;;21.73;12.50;;;;;;;4.51;100.00;102368.09;10445930;28;20452;-81
2023/05/25 02:08:15;;;;;;;20.50;13.38;;;;;;;4.54;100.00;102366.75;10482132;28;20174;-81
2023/05/25 02:13:15;;;;;;;29.33;15.32;;;;;;;4.52;100.00;102357.91;10486484;28;20540;-81
2023/05/25 02:18:16;;;;;;;25.27;12.88;;;;;;;4.52;100.00;102362.16;10487270;28;20041;-82
2023/05/25 02:23:17;;;;;;;25.13;13.90;;;;;;;4.41;100.00;102356.84;10469445;28;20124;-81
2023/05/25 02:28:18;;;;;;;30.10;16.50;;;;;;;4.45;100.00;102362.34;10487534;28;20098;-81
2023/05/25 02:33:19;;;;;;;19.27;14.07;;;;;;;4.54;100.00;102366.75;10484577;28;20830;-82
2023/05/25 02:38:19;;;;;;;19.10;13.23;;;;;;;4.46;100.00;102362.50;10468532;28;20060;-81
2023/05/25 02:43:20;;;;;;;27.55;14.45;;;;;;;4.42;100.00;102365.56;10486040;28;20033;-81
2023/05/25 02:48:21;;;;;;;23.83;13.95;;;;;;;4.35;100.00;102368.31;10486398;28;20131;-81
2023/05/25 02:53:22;;;;;;;20.48;13.13;;;;;;;4.27;100.00;102377.94;10485857;28;20044;-81
2023/05/25 02:58:22;;;;;;;26.02;15.80;;;;;;;4.28;100.00;102376.25;10484494;28;20071;-81
2023/05/25 03:03:23;;;;;;;31.10;16.55;;;;;;;4.22;100.00;102373.97;10468661;28;20631;-82
2023/05/25 03:08:23;;;;;;;37.90;17.77;;;;;;;4.33;100.00;102380.22;10464613;28;20060;-81
2023/05/25 03:13:24;;;;;;;27.35;17.35;;;;;;;4.31;100.00;102379.16;10485435;28;20060;-83
2023/05/25 03:18:24;;;;;;;25.50;17.55;;;;;;;4.35;100.00;102383.88;10483668;28;20120;-81
2023/05/25 03:23:25;;;;;;;26.50;14.82;;;;;;;4.30;100.00;102393.78;10483126;28;20044;-80
2023/05/25 03:28:26;;;;;;;23.83;13.57;;;;;;;4.24;100.00;102400.97;10485788;28;20062;-86
2023/05/25 03:33:26;;;;;;;24.38;16.67;;;;;;;4.21;100.00;102398.06;10482024;28;20057;-83
2023/05/25 03:38:27;;;;;;;35.17;17.23;;;;;;;4.21;100.00;102404.19;10483883;28;20434;-87
2023/05/25 03:43:27;;;;;;;23.25;15.68;;;;;;;4.20;100.00;102404.00;10478333;28;20118;-83
2023/05/25 03:48:28;;;;;;;25.83;17.80;;;;;;;4.25;100.00;102415.75;10484098;28;20046;-79
2023/05/25 03:53:28;;;;;;;28.27;17.05;;;;;;;4.30;100.00;102417.09;10482975;28;20148;-80
2023/05/25 03:58:29;;;;;;;31.05;18.10;;;;;;;4.39;100.00;102414.53;10470339;28;20052;-81
2023/05/25 04:03:31;;;;;;;45.88;18.20;;;;;;;4.46;100.00;102418.59;10461885;28;20143;-84
2023/05/25 04:08:32;;;;;;;23.30;17.25;;;;;;;4.50;100.00;102416.47;10476584;28;20039;-81
2023/05/25 04:13:35;;;;;;;34.10;18.30;;;;;;;4.61;100.00;102425.28;10492825;28;20064;-79
2023/05/25 04:18:35;;;;;;;;;;;;;;;4.72;100.00;102426.34;10489159;28;20455;-82
2023/05/25 04:23:36;;;;;;;24.98;17.95;;;;;;;4.80;100.00;102425.38;10473569;28;19939;-89
2023/05/25 04:28:36;;;;;;;37.13;20.23;;;;;;;5.02;100.00;102430.03;10441584;28;20187;-85
2023/05/25 04:33:37;;;;;;;38.35;20.02;;;;;;;5.35;100.00;102440.84;10501697;27;20497;-82
2023/05/25 04:38:38;;;;;;;29.25;17.40;;;;;;;5.65;100.00;102441.91;10437676;28;20038;-81
2023/05/25 04:43:38;;;;;;;26.30;17.02;;;;;;;5.84;100.00;102453.22;10426163;28;20071;-82
2023/05/25 04:48:39;;;;;;;35.10;20.48;;;;;;;6.04;100.00;102450.69;10449171;28;20033;-79
2023/05/25 04:53:40;;;;;;;30.50;18.60;;;;;;;6.51;100.00;102446.25;10426744;28;20488;-81
2023/05/25 04:58:41;;;;;;;31.48;17.98;;;;;;;6.81;100.00;102452.38;10430839;28;20557;-81
2023/05/25 05:03:41;;;;;;;26.35;16.77;;;;;;;7.04;100.00;102459.56;10450660;28;20029;-82
2023/05/25 05:08:42;;;;;;;21.17;13.98;;;;;;;7.18;100.00;102460.81;10431589;28;20592;-81
2023/05/25 05:13:42;;;;;;;28.20;14.60;;;;;;;7.73;100.00;102470.59;10447522;28;20120;-82
2023/05/25 05:18:43;;;;;;;20.58;10.57;;;;;;;8.44;100.00;102466.06;10449381;28;20489;-82
2023/05/25 05:23:43;;;;;;;16.88;8.00;;;;;;;9.49;100.00;102467.38;10447709;28;20033;-84
2023/05/25 05:28:44;;;;;;;18.75;8.15;;;;;;;10.22;100.00;102465.03;10447359;28;20052;-83
2023/05/25 05:33:44;;;;;;;13.52;6.32;;;;;;;11.09;100.00;102432.94;10448990;28;20508;-83
2023/05/25 05:38:45;;;;;;;13.02;6.28;;;;;;;11.92;100.00;102394.84;10431427;28;20081;-82
2023/05/25 05:43:46;;;;;;;15.90;8.10;;;;;;;12.82;100.00;102405.00;10448295;28;20136;-82
2023/05/25 05:48:47;;;;;;;13.20;6.50;;;;;;;14.06;100.00;102410.72;10446952;28;20080;-85
2023/05/25 05:53:47;;;;;;;9.93;5.78;;;;;;;15.03;100.00;102424.91;10448046;28;20051;-85
2023/05/25 05:58:48;;;;;;;15.10;6.37;;;;;;;15.79;100.00;102425.31;10430006;28;20123;-84
2023/05/25 06:03:49;;;;;;;10.03;5.50;;;;;;;16.48;100.00;102437.53;10430032;28;20116;-84
2023/05/25 06:08:50;;;;;;;18.23;6.67;;;;;;;17.42;100.00;102446.28;10445964;28;20303;-84
2023/05/25 06:13:50;;;;;;;19.13;5.60;;;;;;;18.22;100.00;102455.91;10445623;28;20491;-84
2023/05/25 06:18:51;;;;;;;10.67;6.53;;;;;;;18.63;100.00;102451.38;10445270;28;20127;-85
2023/05/25 06:23:51;;;;;;;13.53;7.17;;;;;;;18.97;97.93;102447.41;10445484;28;20128;-84
2023/05/25 06:28:52;;;;;;;14.57;4.90;;;;;;;19.69;87.06;102448.25;10444583;28;20033;-84
2023/05/25 06:33:52;;;;;;;14.33;5.40;;;;;;;19.94;84.24;102441.16;10446482;28;20064;-83
2023/05/25 06:38:53;;;;;;;17.37;6.33;;;;;;;20.53;83.10;102446.63;10444597;28;20116;-83
2023/05/25 06:43:53;;;;;;;16.47;5.23;;;;;;;20.47;81.20;102446.41;10444876;28;20075;-84
2023/05/25 06:48:54;;;;;;;12.63;4.93;;;;;;;21.08;76.29;102456.28;10444677;28;20131;-85
2023/05/25 06:53:54;;;;;;;13.63;6.03;;;;;;;21.36;72.10;102460.63;10427471;28;20123;-85
2023/05/25 06:58:55;;;;;;;7.37;4.10;;;;;;;21.19;72.45;102465.47;10427259;28;20121;-85
2023/05/25 07:03:55;;;;;;;14.70;6.07;;;;;;;21.31;75.86;102461.38;10445126;28;20121;-84
2023/05/25 07:08:56;;;;;;;12.83;7.23;;;;;;;21.78;68.82;102463.53;10443739;28;20545;-85
2023/05/25 07:13:56;;;;;;;12.87;5.97;;;;;;;22.11;65.14;102465.28;10443183;28;20125;-83
2023/05/25 07:18:57;;;;;;;10.93;4.87;;;;;;;22.03;66.02;102470.44;10441279;28;20055;-84
2023/05/25 07:23:57;;;;;;;9.63;4.80;;;;;;;22.55;64.76;102465.50;10426801;28;20071;-84
2023/05/25 07:28:58;;;;;;;11.63;4.73;;;;;;;23.13;66.16;102466.75;10444325;28;20141;-84
2023/05/25 07:33:59;;;;;;;15.83;5.87;;;;;;;23.33;62.79;102477.88;10442569;28;20068;-83
2023/05/25 07:39:00;;;;;;;12.00;6.53;;;;;;;22.88;64.38;102485.81;10425165;28;20128;-84
2023/05/25 07:44:00;;;;;;;10.95;4.75;;;;;;;22.64;65.60;102485.25;10444612;28;20037;-85
2023/05/25 07:49:02;;;;;;;15.23;5.97;;;;;;;23.47;61.90;102486.16;10442328;28;20104;-85
2023/05/25 07:54:02;;;;;;;;;;;;;;;23.78;62.72;102485.84;10444065;28;20029;-85
2023/05/25 07:59:03;;;;;;;12.50;5.53;;;;;;;24.31;60.37;102483.22;10441716;28;19920;-84
2023/05/25 08:04:03;;;;;;;8.77;4.20;;;;;;;23.04;61.15;102496.81;10441118;28;20049;-84
2023/05/25 08:09:05;;;;;;;13.73;5.70;;;;;;;23.49;61.51;102496.88;10442575;28;20064;-83
2023/05/25 08:14:05;;;;;;;12.73;6.20;;;;;;;23.41;62.12;102486.94;10425701;28;20037;-84
2023/05/25 08:19:06;;;;;;;9.67;4.70;;;;;;;23.45;57.57;102495.94;10443127;28;20507;-84
2023/05/25 08:24:07;;;;;;;17.27;6.17;;;;;;;22.19;63.17;102510.81;10440340;28;20138;-84
2023/05/25 08:29:07;;;;;;;16.75;5.00;;;;;;;24.00;61.96;102498.75;10424816;28;20033;-82
2023/05/25 08:34:08;;;;;;;11.83;4.03;;;;;;;24.54;56.26;102490.69;10442175;28;20124;-84
2023/05/25 08:39:09;;;;;;;7.43;4.23;;;;;;;22.96;55.49;102502.00;10442778;28;20408;-84
2023/05/25 08:44:09;;;;;;;8.80;4.57;;;;;;;21.94;56.27;102505.72;10442485;28;20346;-84
2023/05/25 08:49:11;;;;;;;10.23;4.83;;;;;;;21.12;62.25;102501.66;10428419;28;20044;-84
2023/05/25 08:54:12;;;;;;;10.13;4.55;;;;;;;23.55;59.26;102491.66;10449056;28;20067;-84
2023/05/25 08:59:33;;;;;;;15.20;6.03;;;;;;;25.11;52.11;102495.97;10431847;28;20090;-84
2023/05/25 09:04:33;;;;;;;12.23;3.88;;;;;;;23.21;57.89;102498.94;10476106;28;20044;-84
2023/05/25 09:09:35;;;;;;;8.17;4.50;;;;;;;23.95;56.71;102496.84;10507179;28;20064;-84
2023/05/25 09:14:36;;;;;;;9.57;4.63;;;;;;;24.42;54.80;102490.50;10522576;28;20040;-84
2023/05/25 09:19:37;;;;;;;10.35;3.85;;;;;;;24.27;53.55;102508.13;10488365;28;20124;-84
2023/05/25 09:24:40;;;;;;;17.93;4.33;;;;;;;22.34;56.96;102510.28;10488779;28;20044;-84
2023/05/25 09:29:41;;;;;;;10.88;3.80;;;;;;;23.11;54.96;102508.53;10490002;28;20036;-85
2023/05/25 09:34:45;;;;;;;11.57;4.23;;;;;;;22.13;57.77;102509.78;10490316;28;20052;-84
2023/05/25 09:39:46;;;;;;;9.27;4.50;;;;;;;22.47;56.73;102498.19;10489980;28;20040;-84
2023/05/25 09:44:46;;;;;;;5.28;3.13;;;;;;;19.91;62.01;102503.06;10472132;28;20484;-84
2023/05/25 09:49:49;;;;;;;12.13;4.73;;;;;;;22.71;64.25;102501.44;10489460;28;20113;-84
2023/05/25 09:54:50;;;;;;;9.82;3.85;;;;;;;22.89;56.47;102513.41;10488111;28;20032;-84
2023/05/25 09:59:50;;;;;;;9.73;3.42;;;;;;;19.98;65.64;102511.25;10488876;28;20510;-84
2023/05/25 10:04:51;;;;;;;7.43;3.67;;;;;;;21.42;65.47;102511.41;10471961;28;20182;-84
2023/05/25 10:09:52;;;;;;;7.80;3.20;;;;;;;20.03;65.41;102522.94;10487104;28;20132;-83
2023/05/25 10:14:53;;;;;;;10.33;4.23;;;;;;;22.69;63.68;102510.28;10504254;28;20036;-84
2023/05/25 10:19:58;;;;;;;8.43;3.43;;;;;;;24.74;54.75;102525.84;10470418;28;20140;-82
2023/05/25 10:25:06;;;;;;;7.22;3.22;;;;;;;25.28;55.54;102506.94;10469753;28;20086;-83
2023/05/25 10:30:07;;;;;;;7.85;3.58;;;;;;;24.80;49.67;102522.34;10486138;28;20047;-83
2023/05/25 10:35:08;;;;;;;8.33;3.90;;;;;;;21.58;61.75;102533.13;10487532;28;20043;-82
2023/05/25 10:40:09;;;;;;;6.00;2.90;;;;;;;20.22;66.83;102522.72;10486897;28;20758;-82
2023/05/25 10:45:10;;;;;;;7.03;3.17;;;;;;;19.54;69.91;102536.22;10469220;28;20067;-82
2023/05/25 10:50:28;;;;;;;8.70;4.43;;;;;;;18.75;75.12;102527.88;10485827;28;20366;-81
2023/05/25 10:55:52;;;;;;;8.02;4.20;;;;;;;19.88;71.49;102536.56;10469413;28;20033;-85
2023/05/25 11:01:02;;;;;;;7.40;4.07;;;;;;;20.74;65.56;102522.63;10470519;28;20043;-83
2023/05/25 11:06:03;;;;;;;11.80;4.05;;;;;;;20.83;69.83;102535.38;10485199;28;20032;-82
2023/05/25 11:11:03;;;;;;;8.63;6.10;;;;;;;21.73;65.11;102530.06;10484908;28;20029;-81
2023/05/25 11:16:16;;;;;;;15.17;5.50;;;;;;;19.52;72.62;102530.88;10484837;28;20487;-82
2023/05/25 11:21:26;;;;;;;10.80;4.43;;;;;;;18.98;75.79;102531.44;10484352;28;20099;-82
2023/05/25 11:26:30;;;;;;;7.57;4.20;;;;;;;18.74;78.03;102513.69;10485717;28;20443;-82
2023/05/25 11:31:31;;;;;;;10.07;4.00;;;;;;;18.81;77.43;102516.59;10468218;28;20067;-82
2023/05/25 11:36:34;;;;;;;9.90;5.88;;;;;;;18.75;75.25;102519.91;10468277;28;20115;-81
2023/05/25 11:41:35;;;;;;;7.38;4.15;;;;;;;19.17;77.02;102509.22;10484351;28;20067;-81
2023/05/25 11:46:37;;;;;;;6.70;4.05;;;;;;;19.48;72.39;102513.03;10467000;28;20127;-81
2023/05/25 11:51:37;;;;;;;7.28;4.20;;;;;;;20.21;71.71;102510.28;10485877;28;20062;-82
2023/05/25 11:56:38;;;;;;;15.82;6.07;;;;;;;19.97;73.11;102510.34;10484764;28;20037;-81
2023/05/25 12:01:38;;;;;;;14.10;6.27;;;;;;;19.24;77.12;102502.38;10517837;28;20113;-82
2023/05/25 12:06:39;;;;;;;8.85;4.53;;;;;;;18.92;77.77;102517.91;10485043;28;20535;-82
2023/05/25 12:11:44;;;;;;;18.05;4.50;;;;;;;18.88;75.24;102514.25;10483549;28;20056;-82
2023/05/25 12:16:44;;;;;;;25.25;6.97;;;;;;;19.12;77.64;102507.22;10483147;28;20044;-82
2023/05/25 12:21:46;;;;;;;13.43;5.28;;;;;;;19.11;74.58;102500.09;10465995;28;20068;-81
2023/05/25 12:26:50;;;;;;;11.15;3.47;;;;;;;19.76;72.55;102497.16;10474029;28;20393;-82
2023/05/25 12:31:51;;;;;;;8.18;3.88;;;;;;;20.64;70.66;102485.94;10475324;28;20036;-82
2023/05/25 12:36:53;;;;;;;13.27;5.03;;;;;;;20.14;72.29;102489.66;10491481;28;20190;-82
2023/05/25 12:41:54;;;;;;;12.95;6.15;;;;;;;19.78;74.53;102484.84;10490533;28;20048;-81
2023/05/25 12:46:54;;;;;;;15.50;4.22;;;;;;;19.90;73.55;102485.31;10491285;28;20044;-80
2023/05/25 12:51:55;;;;;;;9.87;3.00;;;;;;;21.18;70.56;102490.28;10473490;28;20037;-81
2023/05/25 12:56:56;;;;;;;10.97;3.63;;;;;;;22.49;64.94;102476.00;10489946;28;20469;-82
2023/05/25 13:01:56;;;;;;;15.23;5.53;;;;;;;22.26;62.85;102478.09;10492532;28;20120;-81
2023/05/25 13:06:57;;;;;;;12.53;5.53;;;;;;;21.19;65.45;102472.53;10489759;28;20028;-82
2023/05/25 13:11:58;;;;;;;14.23;5.43;;;;;;;21.86;62.25;102480.63;10489285;28;20190;-81
2023/05/25 13:16:58;;;;;;;7.67;4.00;;;;;;;22.95;57.85;102470.84;10472494;28;20472;-86
2023/05/25 13:21:59;;;;;;;11.47;5.33;;;;;;;23.47;57.58;102456.78;10491628;28;20106;-83
2023/05/25 13:27:00;;;;;;;7.47;3.23;;;;;;;22.05;60.04;102463.38;10489057;28;20032;-83
2023/05/25 13:32:00;;;;;;;13.37;4.17;;;;;;;20.33;61.67;102464.59;10490332;28;20060;-83
2023/05/25 13:37:01;;;;;;;11.77;5.43;;;;;;;20.83;60.54;102463.53;10488097;28;20162;-84
2023/05/25 13:42:01;;;;;;;9.05;4.45;;;;;;;19.98;63.58;102455.44;10521660;28;20123;-79
2023/05/25 13:47:02;;;;;;;8.77;4.05;;;;;;;20.22;64.57;102447.41;10489311;28;20186;-78
2023/05/25 13:52:02;;;;;;;8.20;4.50;;;;;;;21.31;61.64;102440.06;10487957;28;20044;-80
2023/05/25 13:57:03;;;;;;;11.07;4.37;;;;;;;20.71;66.17;102442.72;10490458;28;20028;-79
2023/05/25 14:02:03;;;;;;;10.85;5.57;;;;;;;20.26;65.18;102441.34;10489655;28;20503;-79
2023/05/25 14:07:04;;;;;;;9.67;4.53;;;;;;;20.50;63.42;102445.63;10487407;28;20040;-78
2023/05/25 14:12:05;;;;;;;10.40;5.43;;;;;;;21.19;66.81;102435.28;10489356;28;20041;-79
2023/05/25 14:17:06;;;;;;;12.85;4.18;;;;;;;22.08;60.03;102441.22;10469709;28;20040;-79
2023/05/25 14:22:06;;;;;;;14.47;4.67;;;;;;;20.21;62.86;102446.47;10469678;28;20106;-81
2023/05/25 14:27:07;;;;;;;7.13;4.03;;;;;;;22.20;62.14;102427.28;10502220;28;20381;-84
2023/05/25 14:32:07;;;;;;;10.23;4.43;;;;;;;23.05;57.80;102428.31;10486812;28;20044;-82
2023/05/25 14:37:08;;;;;;;14.73;4.80;;;;;;;21.66;61.19;102443.72;10486244;28;20061;-81
2023/05/25 14:42:09;;;;;;;11.60;5.77;;;;;;;20.19;63.65;102437.56;10485660;28;20032;-81
2023/05/25 14:47:09;;;;;;;10.93;4.70;;;;;;;19.32;64.72;102442.50;10487010;28;20124;-83
2023/05/25 14:52:10;;;;;;;8.18;5.18;;;;;;;20.03;64.98;102437.91;10486785;28;20052;-81
2023/05/25 14:57:11;;;;;;;11.18;6.32;;;;;;;20.85;64.40;102429.88;10487720;28;20560;-82
2023/05/25 15:02:11;;;;;;;8.63;4.50;;;;;;;21.22;60.23;102427.38;10455042;28;20041;-84
2023/05/25 15:07:13;;;;;;;12.47;4.57;;;;;;;20.69;62.51;102434.72;10444401;28;20167;-82
2023/05/25 15:12:13;;;;;;;;;;;;;;;20.44;64.77;102425.03;10444798;28;20397;-81
2023/05/25 15:17:14;;;;;;;10.68;5.45;;;;;;;20.03;65.29;102422.88;10444534;28;19923;-81
2023/05/25 15:22:14;;;;;;;10.30;4.73;;;;;;;19.39;64.55;102429.47;10445153;28;20489;-80
2023/05/25 15:27:15;;;;;;;10.68;4.68;;;;;;;19.10;66.32;102430.22;10443067;28;20059;-80
2023/05/25 15:32:17;;;;;;;11.15;4.55;;;;;;;18.76;67.71;102416.53;10444292;28;20096;-82
2023/05/25 15:37:17;;;;;;;11.07;3.83;;;;;;;18.28;70.22;102411.09;10459089;28;20043;-79
2023/05/25 15:42:18;;;;;;;8.00;4.45;;;;;;;18.97;72.22;102414.69;10443004;28;20052;-79
2023/05/25 15:47:18;;;;;;;12.80;3.75;;;;;;;19.32;68.15;102405.34;10444654;28;22930;-81
2023/05/25 15:52:19;;;;;;;9.68;5.05;;;;;;;19.11;68.34;102410.78;10441840;28;20053;-81
2023/05/25 15:57:19;;;;;;;11.25;5.03;;;;;;;18.58;67.60;102413.16;10426172;28;20120;-80
2023/05/25 16:02:20;;;;;;;8.15;3.88;;;;;;;18.14;69.29;102400.84;10442237;28;20037;-84
2023/05/25 16:07:20;;;;;;;9.20;3.83;;;;;;;17.69;74.73;102416.56;10434704;28;20093;-81
2023/05/25 16:12:24;;;;;;;10.07;4.00;;;;;;;17.36;77.19;102411.63;10441952;28;20044;-81
2023/05/25 16:17:25;;;;;;;14.27;4.50;;;;;;;17.23;75.85;102400.50;10474056;28;20045;-84
2023/05/25 16:22:26;;;;;;;10.73;4.93;;;;;;;17.18;73.65;102402.03;10441019;28;20179;-80
2023/05/25 16:27:26;;;;;;;12.02;3.58;;;;;;;17.27;76.20;102406.84;10442238;28;20044;-81
2023/05/25 16:32:27;;;;;;;10.48;3.67;;;;;;;17.39;75.44;102402.09;10442018;28;20103;-79
2023/05/25 16:37:28;;;;;;;8.17;4.50;;;;;;;17.14;74.97;102411.56;10441395;28;20472;-81
2023/05/25 16:42:28;;;;;;;14.57;5.00;;;;;;;17.22;80.11;102403.97;10441463;28;20124;-80
2023/05/25 16:47:29;;;;;;;17.10;4.38;;;;;;;17.33;80.73;102407.13;10424430;28;20465;-79
2023/05/25 16:52:29;;;;;;;9.90;5.25;;;;;;;17.25;76.77;102408.50;10442105;28;20127;-79
2023/05/25 16:57:30;;;;;;;19.00;5.65;;;;;;;17.03;74.37;102404.91;10441396;28;20143;-86
2023/05/25 17:02:30;;;;;;;11.63;3.28;;;;;;;17.11;77.27;102402.59;10480002;28;20107;-85
2023/05/25 17:07:34;;;;;;;12.88;5.10;;;;;;;17.08;77.73;102398.06;10483557;28;20098;-85
2023/05/25 17:12:35;;;;;;;9.30;3.60;;;;;;;16.83;79.64;102393.34;10488025;28;20044;-87
2023/05/25 17:17:35;;;;;;;10.00;3.88;;;;;;;16.81;83.05;102389.72;10488452;28;20025;-81
2023/05/25 17:22:36;;;;;;;12.60;4.78;;;;;;;16.84;84.21;102400.44;10489470;28;20131;-80
2023/05/25 17:27:37;;;;;;;11.07;4.27;;;;;;;17.07;82.03;102398.91;10490252;28;20036;-81
2023/05/25 17:32:39;;;;;;;19.40;6.68;;;;;;;17.01;80.54;102406.56;10489077;28;20032;-79
2023/05/25 17:37:40;;;;;;;9.95;4.55;;;;;;;16.68;81.63;102397.09;10488244;28;20028;-85
2023/05/25 17:42:41;;;;;;;15.65;4.30;;;;;;;16.39;83.25;102404.53;10490211;28;20046;-85
2023/05/25 17:47:41;;;;;;;6.38;4.10;;;;;;;16.18;86.15;102403.50;10487198;28;20375;-79
2023/05/25 17:52:42;;;;;;;13.32;4.80;;;;;;;15.82;88.65;102401.72;10489598;28;20076;-80
2023/05/25 17:57:42;;;;;;;8.32;3.63;;;;;;;15.46;96.09;102409.56;10486988;28;20115;-81
2023/05/25 18:02:43;;;;;;;10.02;6.30;;;;;;;15.42;98.45;102408.47;10478268;28;20037;-79
2023/05/25 18:07:43;;;;;;;13.65;6.07;;;;;;;15.41;98.07;102404.03;10479941;28;20048;-80
2023/05/25 18:12:47;;;;;;;15.07;5.80;;;;;;;15.45;94.63;102408.63;10486356;28;20453;-80
2023/05/25 18:17:48;;;;;;;11.02;5.55;;;;;;;15.13;98.56;102405.19;10486210;28;20071;-80
2023/05/25 18:22:48;;;;;;;15.02;6.07;;;;;;;14.85;100.00;102406.34;10486681;28;20064;-80
2023/05/25 18:27:49;;;;;;;14.63;4.82;;;;;;;14.77;100.00;102410.28;10486669;28;20094;-80
2023/05/25 18:32:50;;;;;;;20.92;6.13;;;;;;;14.59;100.00;102407.53;10487620;28;20430;-80
2023/05/25 18:37:50;;;;;;;18.65;5.53;;;;;;;14.62;100.00;102405.94;10484210;28;20037;-80
2023/05/25 18:42:51;;;;;;;11.32;5.25;;;;;;;14.56;100.00;102410.88;10487488;28;20067;-80
2023/05/25 18:47:51;;;;;;;15.48;6.70;;;;;;;14.42;100.00;102411.81;10518084;28;20467;-80
2023/05/25 18:52:52;;;;;;;15.63;6.35;;;;;;;14.15;100.00;102406.81;10487214;28;20089;-80
2023/05/25 18:57:53;;;;;;;21.52;6.03;;;;;;;13.99;100.00;102412.91;10485633;28;20138;-79
2023/05/25 19:02:53;;;;;;;13.93;5.15;;;;;;;13.86;100.00;102409.56;10468696;28;20032;-80
2023/05/25 19:07:54;;;;;;;16.17;5.57;;;;;;;13.60;100.00;102415.91;10484307;28;20380;-79
2023/05/25 19:12:54;;;;;;;16.30;5.22;;;;;;;13.26;100.00;102420.00;10484279;28;20496;-78
2023/05/25 19:17:55;;;;;;;17.92;5.82;;;;;;;12.89;100.00;102422.97;10484446;28;20498;-78
2023/05/25 19:22:55;;;;;;;39.00;8.68;;;;;;;12.50;100.00;102417.88;10484203;28;20064;-78
2023/05/25 19:27:57;;;;;;;12.63;5.28;;;;;;;12.37;100.00;102424.06;10484213;28;20417;-78
2023/05/25 19:32:58;;;;;;;16.20;7.40;;;;;;;12.11;100.00;102422.34;10483719;28;20056;-78
2023/05/25 19:37:58;;;;;;;29.60;7.80;;;;;;;11.95;100.00;102423.91;10485053;28;20128;-78
2023/05/25 19:42:59;;;;;;;46.60;7.38;;;;;;;11.62;100.00;102428.69;10484586;28;20067;-78
2023/05/25 19:48:00;;;;;;;20.13;6.95;;;;;;;11.28;100.00;102432.53;10482662;28;20075;-78
2023/05/25 19:53:01;;;;;;;26.53;7.13;;;;;;;10.91;100.00;102435.16;10483730;28;20037;-78
2023/05/25 19:58:02;;;;;;;12.75;6.50;;;;;;;10.54;100.00;102428.16;10483070;28;20282;-78
2023/05/25 20:03:02;;;;;;;14.27;5.93;;;;;;;10.17;100.00;102435.91;10466686;28;20472;-78
2023/05/25 20:08:03;;;;;;;13.68;7.18;;;;;;;9.90;100.00;102456.56;10484792;28;20131;-78
2023/05/25 20:13:07;;;;;;;18.75;8.02;;;;;;;9.69;100.00;102461.09;10484089;28;20090;-78
2023/05/25 20:18:07;;;;;;;15.60;5.50;;;;;;;9.59;100.00;102462.06;10483004;28;20098;-78
2023/05/25 20:23:08;;;;;;;21.20;7.50;;;;;;;9.59;100.00;102463.78;10484403;28;20109;-78
2023/05/25 20:28:09;;;;;;;26.17;7.97;;;;;;;9.59;100.00;102466.41;10481695;28;20464;-79
2023/05/25 20:33:09;;;;;;;21.85;7.60;;;;;;;9.57;100.00;102471.50;10482291;28;20040;-78
2023/05/25 20:38:10;;;;;;;14.07;5.57;;;;;;;9.50;100.00;102471.81;10485028;28;20119;-78
2023/05/25 20:43:10;;;;;;;19.48;6.88;;;;;;;9.33;100.00;102479.25;10483991;28;20033;-78
2023/05/25 20:48:11;;;;;;;20.60;6.78;;;;;;;9.23;100.00;102492.38;10472257;28;20089;-78
2023/05/25 20:53:21;;;;;;;23.00;7.38;;;;;;;9.21;100.00;102489.66;10489002;28;20452;-77
2023/05/25 20:58:21;;;;;;;23.08;8.32;;;;;;;9.19;100.00;102496.47;10487822;28;20437;-79
2023/05/25 21:03:22;;;;;;;20.73;7.70;;;;;;;9.41;100.00;102498.16;10449397;28;20090;-78
2023/05/25 21:08:22;;;;;;;24.55;9.70;;;;;;;9.54;100.00;102505.22;10449647;28;20048;-78
2023/05/25 21:13:23;;;;;;;16.92;8.52;;;;;;;9.86;100.00;102508.53;10416254;28;20037;-78
2023/05/25 21:18:23;;;;;;;31.35;8.63;;;;;;;10.21;100.00;102505.09;10449402;28;20473;-78
2023/05/25 21:23:24;;;;;;;27.70;10.32;;;;;;;10.49;100.00;102518.53;10447996;28;20037;-79
2023/05/25 21:28:25;;;;;;;23.23;10.95;;;;;;;10.57;100.00;102512.16;10448894;28;20037;-78
2023/05/25 21:33:28;;;;;;;28.08;8.00;;;;;;;10.51;100.00;102516.94;10448933;28;20116;-78
2023/05/25 21:38:28;;;;;;;25.45;8.55;;;;;;;10.60;100.00;102519.34;10414308;28;20427;-78
2023/05/25 21:43:29;;;;;;;24.48;8.13;;;;;;;10.53;100.00;102524.94;10446999;28;20041;-79
2023/05/25 21:48:30;;;;;;;20.02;9.20;;;;;;;10.39;100.00;102531.72;10446416;28;20033;-78
2023/05/25 21:53:30;;;;;;;23.23;7.90;;;;;;;10.30;100.00;102531.94;10448211;28;20115;-79
2023/05/25 21:58:31;;;;;;;26.38;8.30;;;;;;;10.39;100.00;102535.28;10445180;28;20409;-78
2023/05/25 22:03:31;;;;;;;20.60;9.07;;;;;;;10.23;100.00;102543.63;10447610;28;20052;-78
2023/05/25 22:08:32;;;;;;;18.88;7.45;;;;;;;10.20;100.00;102540.78;10429193;28;20047;-78
2023/05/25 22:13:32;;;;;;;33.55;8.73;;;;;;;10.09;100.00;102545.22;10446893;28;20033;-78
2023/05/25 22:18:33;;;;;;;31.35;9.10;;;;;;;10.06;100.00;102541.44;10447390;28;20057;-78
2023/05/25 22:23:33;;;;;;;20.05;8.63;;;;;;;10.10;100.00;102549.66;10429663;28;20458;-78
2023/05/25 22:28:34;;;;;;;32.90;7.25;;;;;;;9.96;100.00;102559.03;10445915;28;20095;-79
2023/05/25 22:33:34;;;;;;;25.15;8.32;;;;;;;9.77;100.00;102564.56;10451714;28;20496;-79
2023/05/25 22:38:35;;;;;;;26.90;9.73;;;;;;;9.67;100.00;102567.25;10487830;28;20025;-79
2023/05/25 22:43:36;;;;;;;16.75;6.63;;;;;;;9.47;100.00;102566.59;10484351;28;20079;-78
2023/05/25 22:48:36;;;;;;;16.17;8.20;;;;;;;9.28;100.00;102565.91;10487436;28;20048;-79